sensor_id;sensor_type;location;lat;lon;timestamp;pressure;altitude;pressure_sealevel;temperature;humidity
21011;BME280;10663;42.714;23.274;2023-02-21T00:01:22;95211.28;;;3.36;73.31
21011;BME280;10663;42.714;23.274;2023-02-21T00:03:11;95206.25;;;3.28;73.53
21011;BME280;10663;42.714;23.274;2023-02-21T00:05:00;95210.69;;;3.28;73.88
21011;BME280;10663;42.714;23.274;2023-02-21T00:06:50;95219.78;;;3.19;73.99
21011;BME280;10663;42.714;23.274;2023-02-21T00:08:39;95208.72;;;3.10;74.28
21011;BME280;10663;42.714;23.274;2023-02-21T00:10:29;95211.16;;;3.18;74.24
21011;BME280;10663;42.714;23.274;2023-02-21T00:12:18;95210.34;;;3.18;74.20
21011;BME280;10663;42.714;23.274;2023-02-21T00:14:08;95213.34;;;3.15;74.62
21011;BME280;10663;42.714;23.274;2023-02-21T00:15:57;95219.81;;;3.12;74.47
21011;BME280;10663;42.714;23.274;2023-02-21T00:17:46;95212.16;;;3.17;73.98
21011;BME280;10663;42.714;23.274;2023-02-21T00:19:36;95207.94;;;3.10;74.63
21011;BME280;10663;42.714;23.274;2023-02-21T00:21:29;95212.81;;;2.99;74.84
21011;BME280;10663;42.714;23.274;2023-02-21T00:23:18;95202.72;;;3.03;74.62
21011;BME280;10663;42.714;23.274;2023-02-21T00:25:08;95207.34;;;3.01;74.87
21011;BME280;10663;42.714;23.274;2023-02-21T00:26:57;95204.56;;;2.89;75.24
21011;BME280;10663;42.714;23.274;2023-02-21T00:28:46;95196.72;;;2.96;75.41
21011;BME280;10663;42.714;23.274;2023-02-21T00:30:36;95184.59;;;3.08;74.36
21011;BME280;10663;42.714;23.274;2023-02-21T00:32:25;95183.81;;;3.08;74.16
21011;BME280;10663;42.714;23.274;2023-02-21T00:34:15;95197.91;;;3.00;74.81
21011;BME280;10663;42.714;23.274;2023-02-21T00:36:04;95189.63;;;3.03;74.93
21011;BME280;10663;42.714;23.274;2023-02-21T00:37:54;95183.81;;;3.08;74.31
21011;BME280;10663;42.714;23.274;2023-02-21T00:39:44;95183.97;;;3.13;74.48
21011;BME280;10663;42.714;23.274;2023-02-21T00:41:33;95184.97;;;3.18;74.17
21011;BME280;10663;42.714;23.274;2023-02-21T00:43:30;95179.88;;;3.30;73.73
21011;BME280;10663;42.714;23.274;2023-02-21T00:45:20;95180.69;;;3.30;73.51
21011;BME280;10663;42.714;23.274;2023-02-21T00:47:10;95176.47;;;3.36;73.44
21011;BME280;10663;42.714;23.274;2023-02-21T00:49:00;95172.19;;;3.42;73.41
21011;BME280;10663;42.714;23.274;2023-02-21T00:50:49;95175.06;;;3.33;73.23
21011;BME280;10663;42.714;23.274;2023-02-21T00:52:39;95166.31;;;3.46;73.07
21011;BME280;10663;42.714;23.274;2023-02-21T00:54:28;95167.91;;;3.54;73.01
21011;BME280;10663;42.714;23.274;2023-02-21T00:56:17;95162.19;;;3.70;72.10
21011;BME280;10663;42.714;23.274;2023-02-21T00:58:07;95165.16;;;3.80;71.82
21011;BME280;10663;42.714;23.274;2023-02-21T00:59:57;95163.09;;;3.89;71.43
21011;BME280;10663;42.714;23.274;2023-02-21T01:01:46;95153.00;;;3.86;71.69
21011;BME280;10663;42.714;23.274;2023-02-21T01:03:35;95141.56;;;3.80;71.54
21011;BME280;10663;42.714;23.274;2023-02-21T01:05:25;95154.75;;;3.67;72.10
21011;BME280;10663;42.714;23.274;2023-02-21T01:07:14;95141.84;;;3.65;72.49
21011;BME280;10663;42.714;23.274;2023-02-21T01:09:03;95134.44;;;3.62;72.92
21011;BME280;10663;42.714;23.274;2023-02-21T01:10:53;95136.28;;;3.55;73.19
21011;BME280;10663;42.714;23.274;2023-02-21T01:12:42;95131.69;;;3.51;73.68
21011;BME280;10663;42.714;23.274;2023-02-21T01:14:31;95131.94;;;3.43;73.71
21011;BME280;10663;42.714;23.274;2023-02-21T01:16:21;95124.28;;;3.41;73.56
21011;BME280;10663;42.714;23.274;2023-02-21T01:18:10;95123.69;;;3.39;73.64
21011;BME280;10663;42.714;23.274;2023-02-21T01:20:00;95124.72;;;3.31;74.64
21011;BME280;10663;42.714;23.274;2023-02-21T01:21:49;95135.75;;;3.40;74.28
21011;BME280;10663;42.714;23.274;2023-02-21T01:23:39;95133.38;;;3.32;74.59
21011;BME280;10663;42.714;23.274;2023-02-21T01:25:28;95134.34;;;3.37;74.26
21011;BME280;10663;42.714;23.274;2023-02-21T01:27:18;95128.78;;;3.27;74.40
21011;BME280;10663;42.714;23.274;2023-02-21T01:29:07;95116.88;;;3.31;74.41
21011;BME280;10663;42.714;23.274;2023-02-21T01:30:57;95126.25;;;3.52;74.13
21011;BME280;10663;42.714;23.274;2023-02-21T01:32:46;95122.72;;;3.65;72.94
21011;BME280;10663;42.714;23.274;2023-02-21T01:34:35;95115.66;;;3.65;73.01
21011;BME280;10663;42.714;23.274;2023-02-21T01:36:26;95108.63;;;3.66;73.09
21011;BME280;10663;42.714;23.274;2023-02-21T01:38:18;95107.59;;;3.67;72.69
21011;BME280;10663;42.714;23.274;2023-02-21T01:40:08;95106.81;;;3.66;72.94
21011;BME280;10663;42.714;23.274;2023-02-21T01:42:02;95113.38;;;3.75;72.49
21011;BME280;10663;42.714;23.274;2023-02-21T01:44:06;95126.06;;;3.79;72.26
21011;BME280;10663;42.714;23.274;2023-02-21T01:46:17;95106.34;;;3.76;72.03
21011;BME280;10663;42.714;23.274;2023-02-21T01:48:12;95112.31;;;3.83;72.01
21011;BME280;10663;42.714;23.274;2023-02-21T01:50:08;95106.06;;;3.84;71.60
21011;BME280;10663;42.714;23.274;2023-02-21T01:52:00;95104.06;;;3.86;71.82
21011;BME280;10663;42.714;23.274;2023-02-21T01:53:52;95100.28;;;3.75;71.82
21011;BME280;10663;42.714;23.274;2023-02-21T01:55:42;95107.34;;;3.75;72.13
21011;BME280;10663;42.714;23.274;2023-02-21T01:57:32;95098.53;;;3.69;72.21
21011;BME280;10663;42.714;23.274;2023-02-21T01:59:23;95102.38;;;3.67;72.51
21011;BME280;10663;42.714;23.274;2023-02-21T02:01:24;95105.97;;;3.72;72.42
21011;BME280;10663;42.714;23.274;2023-02-21T02:03:18;95089.88;;;3.69;72.31
21011;BME280;10663;42.714;23.274;2023-02-21T02:05:09;95090.25;;;3.72;72.36
21011;BME280;10663;42.714;23.274;2023-02-21T02:06:59;95084.63;;;3.69;72.04
21011;BME280;10663;42.714;23.274;2023-02-21T02:08:48;95098.69;;;3.74;71.65
21011;BME280;10663;42.714;23.274;2023-02-21T02:10:41;95079.19;;;3.70;72.27
21011;BME280;10663;42.714;23.274;2023-02-21T02:14:16;95067.16;;;3.63;72.49
21011;BME280;10663;42.714;23.274;2023-02-21T02:21:42;95075.59;;;3.65;72.49
21011;BME280;10663;42.714;23.274;2023-02-21T02:25:26;95076.25;;;3.60;72.84
21011;BME280;10663;42.714;23.274;2023-02-21T02:34:51;95067.22;;;3.81;72.14
21011;BME280;10663;42.714;23.274;2023-02-21T02:36:39;95075.84;;;3.88;71.82
21011;BME280;10663;42.714;23.274;2023-02-21T02:38:26;95067.69;;;3.96;71.44
21011;BME280;10663;42.714;23.274;2023-02-21T02:40:26;95068.81;;;4.07;71.04
21011;BME280;10663;42.714;23.274;2023-02-21T02:42:23;95066.94;;;4.14;70.63
21011;BME280;10663;42.714;23.274;2023-02-21T02:44:03;95067.31;;;4.18;70.24
21011;BME280;10663;42.714;23.274;2023-02-21T02:47:18;95066.31;;;4.19;70.56
21011;BME280;10663;42.714;23.274;2023-02-21T02:50:31;95084.41;;;4.20;70.46
21011;BME280;10663;42.714;23.274;2023-02-21T02:52:05;95076.78;;;4.19;70.58
21011;BME280;10663;42.714;23.274;2023-02-21T02:53:36;95079.78;;;4.22;70.63
21011;BME280;10663;42.714;23.274;2023-02-21T02:55:29;95068.66;;;4.27;70.28
21011;BME280;10663;42.714;23.274;2023-02-21T02:57:04;95067.91;;;4.38;70.07
21011;BME280;10663;42.714;23.274;2023-02-21T02:59:11;95052.78;;;4.40;69.65
21011;BME280;10663;42.714;23.274;2023-02-21T03:00:50;95067.41;;;4.47;69.25
21011;BME280;10663;42.714;23.274;2023-02-21T03:02:38;95076.47;;;4.51;68.98
21011;BME280;10663;42.714;23.274;2023-02-21T03:08:02;95058.19;;;4.45;69.11
21011;BME280;10663;42.714;23.274;2023-02-21T03:11:42;95079.50;;;4.30;69.45
21011;BME280;10663;42.714;23.274;2023-02-21T03:13:37;95058.97;;;4.27;69.76
21011;BME280;10663;42.714;23.274;2023-02-21T03:15:12;95060.47;;;4.17;69.97
21011;BME280;10663;42.714;23.274;2023-02-21T03:16:54;95056.59;;;4.19;70.00
21011;BME280;10663;42.714;23.274;2023-02-21T03:18:54;95040.94;;;4.12;70.16
21011;BME280;10663;42.714;23.274;2023-02-21T03:20:27;95046.63;;;4.09;70.66
21011;BME280;10663;42.714;23.274;2023-02-21T03:22:01;95044.78;;;4.10;70.68
21011;BME280;10663;42.714;23.274;2023-02-21T03:23:36;95041.22;;;4.04;70.46
21011;BME280;10663;42.714;23.274;2023-02-21T03:25:10;95037.44;;;4.00;70.68
21011;BME280;10663;42.714;23.274;2023-02-21T03:26:45;95036.25;;;3.96;71.30
21011;BME280;10663;42.714;23.274;2023-02-21T03:28:53;95037.94;;;3.91;71.76
21011;BME280;10663;42.714;23.274;2023-02-21T03:30:25;95030.28;;;3.89;71.46
21011;BME280;10663;42.714;23.274;2023-02-21T03:32:02;95033.72;;;3.90;71.44
21011;BME280;10663;42.714;23.274;2023-02-21T03:33:41;95035.94;;;3.86;71.51
21011;BME280;10663;42.714;23.274;2023-02-21T03:35:12;95021.44;;;3.84;71.50
21011;BME280;10663;42.714;23.274;2023-02-21T03:36:45;95035.00;;;3.81;71.97
21011;BME280;10663;42.714;23.274;2023-02-21T03:38:18;95020.50;;;3.78;71.81
21011;BME280;10663;42.714;23.274;2023-02-21T03:39:49;95030.03;;;3.72;71.92
21011;BME280;10663;42.714;23.274;2023-02-21T03:41:20;95039.69;;;3.72;72.51
21011;BME280;10663;42.714;23.274;2023-02-21T03:42:53;95041.88;;;3.75;72.21
21011;BME280;10663;42.714;23.274;2023-02-21T03:44:24;95039.59;;;3.60;72.60
21011;BME280;10663;42.714;23.274;2023-02-21T03:45:55;95044.88;;;3.54;72.55
21011;BME280;10663;42.714;23.274;2023-02-21T03:47:26;95044.75;;;3.42;72.67
21011;BME280;10663;42.714;23.274;2023-02-21T03:48:57;95055.13;;;3.24;73.92
21011;BME280;10663;42.714;23.274;2023-02-21T03:50:31;95066.50;;;3.05;74.79
21011;BME280;10663;42.714;23.274;2023-02-21T03:52:03;95054.47;;;2.97;74.54
21011;BME280;10663;42.714;23.274;2023-02-21T03:53:34;95054.50;;;2.90;74.93
21011;BME280;10663;42.714;23.274;2023-02-21T03:55:07;95053.94;;;2.82;75.10
21011;BME280;10663;42.714;23.274;2023-02-21T03:56:39;95054.13;;;2.74;75.67
21011;BME280;10663;42.714;23.274;2023-02-21T03:58:20;95057.41;;;2.62;76.07
21011;BME280;10663;42.714;23.274;2023-02-21T03:59:52;95058.63;;;2.60;76.66
21011;BME280;10663;42.714;23.274;2023-02-21T04:01:23;95069.09;;;2.60;76.61
21011;BME280;10663;42.714;23.274;2023-02-21T04:02:55;95051.97;;;2.64;77.07
21011;BME280;10663;42.714;23.274;2023-02-21T04:04:42;95058.59;;;2.67;76.80
21011;BME280;10663;42.714;23.274;2023-02-21T04:06:17;95068.84;;;2.68;76.53
21011;BME280;10663;42.714;23.274;2023-02-21T04:07:48;95060.75;;;2.83;76.21
21011;BME280;10663;42.714;23.274;2023-02-21T04:09:20;95054.31;;;2.85;75.51
21011;BME280;10663;42.714;23.274;2023-02-21T04:10:51;95063.16;;;2.84;75.67
21011;BME280;10663;42.714;23.274;2023-02-21T04:12:22;95065.31;;;2.94;75.71
21011;BME280;10663;42.714;23.274;2023-02-21T04:13:53;95061.84;;;3.07;75.28
21011;BME280;10663;42.714;23.274;2023-02-21T04:15:24;95068.69;;;3.08;74.76
21011;BME280;10663;42.714;23.274;2023-02-21T04:16:55;95072.53;;;3.05;74.92
21011;BME280;10663;42.714;23.274;2023-02-21T04:18:26;95065.88;;;3.03;74.92
21011;BME280;10663;42.714;23.274;2023-02-21T04:20:00;95073.31;;;3.06;74.84
21011;BME280;10663;42.714;23.274;2023-02-21T04:21:31;95073.31;;;3.06;74.73
21011;BME280;10663;42.714;23.274;2023-02-21T04:23:04;95076.34;;;3.09;75.12
21011;BME280;10663;42.714;23.274;2023-02-21T04:24:36;95083.56;;;3.14;74.59
21011;BME280;10663;42.714;23.274;2023-02-21T04:26:07;95087.38;;;3.18;74.59
21011;BME280;10663;42.714;23.274;2023-02-21T04:27:46;95085.75;;;3.17;74.83
21011;BME280;10663;42.714;23.274;2023-02-21T04:29:17;95093.72;;;3.28;74.81
21011;BME280;10663;42.714;23.274;2023-02-21T04:30:48;95087.06;;;3.32;73.99
21011;BME280;10663;42.714;23.274;2023-02-21T04:32:20;95095.88;;;3.38;74.06
21011;BME280;10663;42.714;23.274;2023-02-21T04:33:50;95093.06;;;3.39;73.46
21011;BME280;10663;42.714;23.274;2023-02-21T04:35:28;95101.91;;;3.45;73.69
21011;BME280;10663;42.714;23.274;2023-02-21T04:37:03;95099.06;;;3.47;73.54
21011;BME280;10663;42.714;23.274;2023-02-21T04:38:36;95108.31;;;3.49;73.40
21011;BME280;10663;42.714;23.274;2023-02-21T04:40:10;95097.66;;;3.51;72.74
21011;BME280;10663;42.714;23.274;2023-02-21T04:41:41;95100.22;;;3.57;72.94
21011;BME280;10663;42.714;23.274;2023-02-21T04:43:13;95089.31;;;3.60;72.38
21011;BME280;10663;42.714;23.274;2023-02-21T04:44:44;95103.44;;;3.59;72.63
21011;BME280;10663;42.714;23.274;2023-02-21T04:46:16;95089.31;;;3.60;72.33
21011;BME280;10663;42.714;23.274;2023-02-21T04:47:47;95100.41;;;3.62;72.34
21011;BME280;10663;42.714;23.274;2023-02-21T04:49:18;95088.69;;;3.65;72.02
21011;BME280;10663;42.714;23.274;2023-02-21T04:50:49;95080.41;;;3.68;71.98
21011;BME280;10663;42.714;23.274;2023-02-21T04:52:19;95088.47;;;3.66;71.96
21011;BME280;10663;42.714;23.274;2023-02-21T04:53:51;95087.09;;;3.64;72.09
21011;BME280;10663;42.714;23.274;2023-02-21T04:55:22;95087.13;;;3.57;72.09
21011;BME280;10663;42.714;23.274;2023-02-21T04:56:53;95084.50;;;3.57;72.32
21011;BME280;10663;42.714;23.274;2023-02-21T04:58:24;95076.25;;;3.60;72.00
21011;BME280;10663;42.714;23.274;2023-02-21T04:59:56;95079.88;;;3.59;72.12
21011;BME280;10663;42.714;23.274;2023-02-21T05:01:28;95062.88;;;3.68;71.86
21011;BME280;10663;42.714;23.274;2023-02-21T05:03:00;95054.69;;;3.83;71.01
21011;BME280;10663;42.714;23.274;2023-02-21T05:04:31;95058.13;;;3.84;70.75
21011;BME280;10663;42.714;23.274;2023-02-21T05:06:02;95052.78;;;3.72;70.99
21011;BME280;10663;42.714;23.274;2023-02-21T05:07:33;95062.03;;;3.74;71.42
21011;BME280;10663;42.714;23.274;2023-02-21T05:09:03;95055.94;;;3.81;70.79
21011;BME280;10663;42.714;23.274;2023-02-21T05:10:34;95053.66;;;3.91;70.23
21011;BME280;10663;42.714;23.274;2023-02-21T05:12:05;95054.13;;;4.06;70.18
21011;BME280;10663;42.714;23.274;2023-02-21T05:13:41;95049.78;;;3.93;69.89
21011;BME280;10663;42.714;23.274;2023-02-21T05:15:12;95060.53;;;3.85;70.80
21011;BME280;10663;42.714;23.274;2023-02-21T05:16:44;95056.91;;;3.86;70.72
21011;BME280;10663;42.714;23.274;2023-02-21T05:18:15;95053.69;;;3.84;70.74
21011;BME280;10663;42.714;23.274;2023-02-21T05:19:53;95051.88;;;3.85;70.33
21011;BME280;10663;42.714;23.274;2023-02-21T05:21:24;95053.34;;;3.74;71.27
21011;BME280;10663;42.714;23.274;2023-02-21T05:22:55;95042.78;;;3.62;71.10
21011;BME280;10663;42.714;23.274;2023-02-21T05:24:28;95047.16;;;3.44;72.25
21011;BME280;10663;42.714;23.274;2023-02-21T05:26:00;95047.63;;;3.34;72.91
21011;BME280;10663;42.714;23.274;2023-02-21T05:27:31;95049.63;;;3.32;73.42
21011;BME280;10663;42.714;23.274;2023-02-21T05:29:03;95050.66;;;3.31;73.60
21011;BME280;10663;42.714;23.274;2023-02-21T05:30:34;95051.25;;;3.33;73.50
21011;BME280;10663;42.714;23.274;2023-02-21T05:32:05;95042.59;;;3.32;73.13
21011;BME280;10663;42.714;23.274;2023-02-21T05:33:35;95049.44;;;3.33;73.11
21011;BME280;10663;42.714;23.274;2023-02-21T05:35:07;95055.66;;;3.32;72.84
21011;BME280;10663;42.714;23.274;2023-02-21T05:36:39;95042.63;;;3.26;73.22
21011;BME280;10663;42.714;23.274;2023-02-21T05:38:10;95048.28;;;3.23;72.95
21011;BME280;10663;42.714;23.274;2023-02-21T05:39:41;95051.31;;;3.20;73.82
21011;BME280;10663;42.714;23.274;2023-02-21T05:41:12;95045.72;;;3.16;73.43
21011;BME280;10663;42.714;23.274;2023-02-21T05:42:43;95048.06;;;3.24;73.47
21011;BME280;10663;42.714;23.274;2023-02-21T05:44:14;95055.94;;;3.24;73.57
21011;BME280;10663;42.714;23.274;2023-02-21T05:45:45;95061.78;;;3.20;73.90
21011;BME280;10663;42.714;23.274;2023-02-21T05:47:16;95064.56;;;3.25;73.28
21011;BME280;10663;42.714;23.274;2023-02-21T05:48:46;95061.38;;;3.23;73.61
21011;BME280;10663;42.714;23.274;2023-02-21T05:50:20;95063.38;;;3.27;73.30
21011;BME280;10663;42.714;23.274;2023-02-21T05:51:51;95059.91;;;3.33;73.33
21011;BME280;10663;42.714;23.274;2023-02-21T05:53:22;95064.28;;;3.39;72.81
21011;BME280;10663;42.714;23.274;2023-02-21T05:54:52;95059.25;;;3.38;73.02
21011;BME280;10663;42.714;23.274;2023-02-21T05:56:23;95071.25;;;3.52;72.42
21011;BME280;10663;42.714;23.274;2023-02-21T05:57:54;95075.84;;;3.57;72.41
21011;BME280;10663;42.714;23.274;2023-02-21T05:59:25;95077.84;;;3.61;72.13
21011;BME280;10663;42.714;23.274;2023-02-21T06:00:56;95086.25;;;3.70;71.58
21011;BME280;10663;42.714;23.274;2023-02-21T06:02:26;95086.84;;;3.72;72.03
21011;BME280;10663;42.714;23.274;2023-02-21T06:03:57;95082.34;;;3.79;71.40
21011;BME280;10663;42.714;23.274;2023-02-21T06:05:28;95087.38;;;3.81;71.12
21011;BME280;10663;42.714;23.274;2023-02-21T06:06:59;95093.38;;;3.88;70.61
21011;BME280;10663;42.714;23.274;2023-02-21T06:08:30;95088.25;;;3.99;70.36
21011;BME280;10663;42.714;23.274;2023-02-21T06:10:01;95092.81;;;4.04;70.53
21011;BME280;10663;42.714;23.274;2023-02-21T06:11:33;95086.22;;;4.20;70.32
21011;BME280;10663;42.714;23.274;2023-02-21T06:13:04;95087.81;;;4.27;69.92
21011;BME280;10663;42.714;23.274;2023-02-21T06:14:35;95095.06;;;4.25;69.67
21011;BME280;10663;42.714;23.274;2023-02-21T06:16:06;95080.75;;;4.28;69.67
21011;BME280;10663;42.714;23.274;2023-02-21T06:17:38;95094.63;;;4.28;69.84
21011;BME280;10663;42.714;23.274;2023-02-21T06:19:09;95084.38;;;4.27;69.96
21011;BME280;10663;42.714;23.274;2023-02-21T06:20:42;95081.69;;;4.33;69.82
21011;BME280;10663;42.714;23.274;2023-02-21T06:22:13;95083.44;;;4.39;69.78
21011;BME280;10663;42.714;23.274;2023-02-21T06:23:44;95087.66;;;4.40;69.70
21011;BME280;10663;42.714;23.274;2023-02-21T06:25:16;95093.94;;;4.58;69.18
21011;BME280;10663;42.714;23.274;2023-02-21T06:26:47;95089.22;;;4.66;69.15
21011;BME280;10663;42.714;23.274;2023-02-21T06:28:18;95084.72;;;4.73;68.94
21011;BME280;10663;42.714;23.274;2023-02-21T06:29:48;95094.41;;;4.73;68.69
21011;BME280;10663;42.714;23.274;2023-02-21T06:31:20;95077.91;;;5.02;68.79
21011;BME280;10663;42.714;23.274;2023-02-21T06:32:51;95082.41;;;5.13;68.08
21011;BME280;10663;42.714;23.274;2023-02-21T06:34:22;95080.19;;;5.28;65.78
21011;BME280;10663;42.714;23.274;2023-02-21T06:35:53;95085.94;;;5.37;65.73
21011;BME280;10663;42.714;23.274;2023-02-21T06:37:24;95085.19;;;5.48;65.43
21011;BME280;10663;42.714;23.274;2023-02-21T06:38:56;95081.53;;;5.49;65.18
21011;BME280;10663;42.714;23.274;2023-02-21T06:40:27;95097.78;;;5.58;65.05
21011;BME280;10663;42.714;23.274;2023-02-21T06:41:58;95090.06;;;5.75;64.95
21011;BME280;10663;42.714;23.274;2023-02-21T06:43:29;95079.19;;;5.89;64.45
21011;BME280;10663;42.714;23.274;2023-02-21T06:45:00;95073.38;;;5.99;63.53
21011;BME280;10663;42.714;23.274;2023-02-21T06:46:31;95079.53;;;6.05;63.48
21011;BME280;10663;42.714;23.274;2023-02-21T06:48:02;95076.56;;;6.13;62.87
21011;BME280;10663;42.714;23.274;2023-02-21T06:49:33;95080.34;;;6.17;63.04
21011;BME280;10663;42.714;23.274;2023-02-21T06:51:05;95081.94;;;6.29;62.41
21011;BME280;10663;42.714;23.274;2023-02-21T06:52:36;95088.13;;;6.35;62.42
21011;BME280;10663;42.714;23.274;2023-02-21T06:54:08;95085.50;;;6.47;62.38
21011;BME280;10663;42.714;23.274;2023-02-21T06:55:39;95091.25;;;6.55;63.45
21011;BME280;10663;42.714;23.274;2023-02-21T06:57:10;95079.66;;;6.68;65.11
21011;BME280;10663;42.714;23.274;2023-02-21T06:58:41;95080.00;;;6.71;63.02
21011;BME280;10663;42.714;23.274;2023-02-21T07:00:12;95087.88;;;6.83;62.85
21011;BME280;10663;42.714;23.274;2023-02-21T07:01:43;95080.78;;;6.84;62.10
21011;BME280;10663;42.714;23.274;2023-02-21T07:03:16;95085.94;;;6.90;62.28
21011;BME280;10663;42.714;23.274;2023-02-21T07:04:47;95084.84;;;7.03;61.10
21011;BME280;10663;42.714;23.274;2023-02-21T07:06:17;95083.81;;;7.16;60.87
21011;BME280;10663;42.714;23.274;2023-02-21T07:07:48;95087.88;;;7.35;59.43
21011;BME280;10663;42.714;23.274;2023-02-21T07:09:19;95079.72;;;7.36;59.08
21011;BME280;10663;42.714;23.274;2023-02-21T07:10:50;95083.72;;;7.39;59.22
21011;BME280;10663;42.714;23.274;2023-02-21T07:12:21;95084.41;;;7.46;58.72
21011;BME280;10663;42.714;23.274;2023-02-21T07:13:53;95083.09;;;7.48;58.92
21011;BME280;10663;42.714;23.274;2023-02-21T07:15:26;95076.56;;;7.51;58.79
21011;BME280;10663;42.714;23.274;2023-02-21T07:16:57;95084.31;;;7.58;58.34
21011;BME280;10663;42.714;23.274;2023-02-21T07:18:28;95089.94;;;7.61;57.88
21011;BME280;10663;42.714;23.274;2023-02-21T07:19:59;95092.91;;;7.65;57.89
21011;BME280;10663;42.714;23.274;2023-02-21T07:21:30;95088.91;;;7.62;58.44
21011;BME280;10663;42.714;23.274;2023-02-21T07:23:01;95088.78;;;7.57;58.03
21011;BME280;10663;42.714;23.274;2023-02-21T07:24:31;95090.88;;;7.55;58.57
21011;BME280;10663;42.714;23.274;2023-02-21T07:26:02;95087.31;;;7.61;58.32
21011;BME280;10663;42.714;23.274;2023-02-21T07:27:33;95085.66;;;7.72;57.92
21011;BME280;10663;42.714;23.274;2023-02-21T07:29:05;95078.63;;;7.77;57.78
21011;BME280;10663;42.714;23.274;2023-02-21T07:30:36;95070.09;;;7.87;57.79
21011;BME280;10663;42.714;23.274;2023-02-21T07:32:06;95075.59;;;7.85;57.92
21011;BME280;10663;42.714;23.274;2023-02-21T07:33:37;95073.75;;;7.86;57.91
21011;BME280;10663;42.714;23.274;2023-02-21T07:35:08;95067.06;;;7.95;58.16
21011;BME280;10663;42.714;23.274;2023-02-21T07:36:39;95063.72;;;8.00;57.68
21011;BME280;10663;42.714;23.274;2023-02-21T07:38:15;95062.75;;;8.06;57.79
21011;BME280;10663;42.714;23.274;2023-02-21T07:39:48;95065.72;;;8.09;57.72
21011;BME280;10663;42.714;23.274;2023-02-21T07:41:19;95064.97;;;8.14;57.13
21011;BME280;10663;42.714;23.274;2023-02-21T07:42:51;95062.13;;;8.15;57.34
21011;BME280;10663;42.714;23.274;2023-02-21T07:44:22;95059.25;;;8.34;56.70
21011;BME280;10663;42.714;23.274;2023-02-21T07:45:53;95059.41;;;8.44;56.12
21011;BME280;10663;42.714;23.274;2023-02-21T07:47:24;95048.81;;;8.60;55.72
21011;BME280;10663;42.714;23.274;2023-02-21T07:48:55;95048.16;;;8.70;56.05
21011;BME280;10663;42.714;23.274;2023-02-21T07:50:26;95059.56;;;8.76;55.37
21011;BME280;10663;42.714;23.274;2023-02-21T07:51:57;95047.03;;;8.83;54.63
21011;BME280;10663;42.714;23.274;2023-02-21T07:53:28;95044.66;;;8.86;54.38
21011;BME280;10663;42.714;23.274;2023-02-21T07:54:59;95038.28;;;8.82;55.00
21011;BME280;10663;42.714;23.274;2023-02-21T07:56:30;95040.44;;;8.85;54.45
21011;BME280;10663;42.714;23.274;2023-02-21T07:58:01;95038.53;;;8.81;54.66
21011;BME280;10663;42.714;23.274;2023-02-21T07:59:32;95034.06;;;8.81;54.46
21011;BME280;10663;42.714;23.274;2023-02-21T08:01:05;95031.66;;;8.80;54.85
21011;BME280;10663;42.714;23.274;2023-02-21T08:02:35;95028.81;;;8.86;54.72
21011;BME280;10663;42.714;23.274;2023-02-21T08:04:07;95029.38;;;8.88;54.58
21011;BME280;10663;42.714;23.274;2023-02-21T08:05:37;95024.91;;;8.89;54.46
21011;BME280;10663;42.714;23.274;2023-02-21T08:07:09;95026.19;;;8.86;54.35
21011;BME280;10663;42.714;23.274;2023-02-21T08:08:39;95033.69;;;8.94;54.44
21011;BME280;10663;42.714;23.274;2023-02-21T08:10:13;95031.53;;;8.91;54.22
21011;BME280;10663;42.714;23.274;2023-02-21T08:11:44;95021.59;;;8.98;54.42
21011;BME280;10663;42.714;23.274;2023-02-21T08:13:14;95024.59;;;9.07;54.27
21011;BME280;10663;42.714;23.274;2023-02-21T08:14:45;95025.28;;;9.19;53.30
21011;BME280;10663;42.714;23.274;2023-02-21T08:16:16;95022.53;;;9.36;52.92
21011;BME280;10663;42.714;23.274;2023-02-21T08:17:47;95016.34;;;9.52;51.51
21011;BME280;10663;42.714;23.274;2023-02-21T08:19:19;95013.81;;;9.62;51.45
21011;BME280;10663;42.714;23.274;2023-02-21T08:20:51;95017.03;;;9.69;51.38
21011;BME280;10663;42.714;23.274;2023-02-21T08:22:22;95017.63;;;9.76;51.50
21011;BME280;10663;42.714;23.274;2023-02-21T08:23:53;95023.25;;;9.85;51.43
21011;BME280;10663;42.714;23.274;2023-02-21T08:25:24;95023.50;;;9.84;51.08
21011;BME280;10663;42.714;23.274;2023-02-21T08:26:55;95019.50;;;10.13;47.77
21011;BME280;10663;42.714;23.274;2023-02-21T08:28:26;95017.59;;;10.35;46.99
21011;BME280;10663;42.714;23.274;2023-02-21T08:29:57;95021.63;;;10.48;46.04
21011;BME280;10663;42.714;23.274;2023-02-21T08:31:28;95006.41;;;10.70;45.24
21011;BME280;10663;42.714;23.274;2023-02-21T08:32:59;94995.66;;;10.92;43.53
21011;BME280;10663;42.714;23.274;2023-02-21T08:34:30;94998.88;;;11.09;43.38
21011;BME280;10663;42.714;23.274;2023-02-21T08:36:01;95004.47;;;11.23;42.91
21011;BME280;10663;42.714;23.274;2023-02-21T08:37:32;95005.06;;;11.40;42.21
21011;BME280;10663;42.714;23.274;2023-02-21T08:39:06;94999.53;;;11.52;42.04
21011;BME280;10663;42.714;23.274;2023-02-21T08:40:37;95003.28;;;11.76;41.67
21011;BME280;10663;42.714;23.274;2023-02-21T08:42:10;94996.41;;;11.90;41.22
21011;BME280;10663;42.714;23.274;2023-02-21T08:43:41;94994.28;;;12.03;40.67
21011;BME280;10663;42.714;23.274;2023-02-21T08:45:15;94997.72;;;12.13;40.93
21011;BME280;10663;42.714;23.274;2023-02-21T08:46:47;94993.75;;;12.16;41.68
21011;BME280;10663;42.714;23.274;2023-02-21T08:48:17;94991.88;;;12.11;41.91
21011;BME280;10663;42.714;23.274;2023-02-21T08:49:48;94990.28;;;12.15;41.93
21011;BME280;10663;42.714;23.274;2023-02-21T08:51:24;94989.25;;;12.01;42.87
21011;BME280;10663;42.714;23.274;2023-02-21T08:52:56;94991.09;;;11.90;43.98
21011;BME280;10663;42.714;23.274;2023-02-21T08:54:26;95000.09;;;11.74;44.60
21011;BME280;10663;42.714;23.274;2023-02-21T08:55:57;94995.28;;;11.46;44.38
21011;BME280;10663;42.714;23.274;2023-02-21T08:57:28;95000.09;;;11.64;43.07
21011;BME280;10663;42.714;23.274;2023-02-21T08:58:59;94990.53;;;11.68;43.00
21011;BME280;10663;42.714;23.274;2023-02-21T09:00:30;94987.63;;;11.75;43.42